createdAt,value
2023-04-23T00:02:06.300Z,2.70
2023-04-23T00:04:36.485Z,2.60
2023-04-23T00:07:04.294Z,2.40
2023-04-23T00:09:32.557Z,2.53
2023-04-23T00:12:01.866Z,2.40
2023-04-23T00:14:29.221Z,2.50
2023-04-23T00:16:56.558Z,2.40
2023-04-23T00:19:29.878Z,2.53
2023-04-23T00:21:56.990Z,2.60
2023-04-23T00:24:24.182Z,2.73
2023-04-23T00:26:52.967Z,2.67
2023-04-23T00:29:20.606Z,2.53
2023-04-23T00:31:47.776Z,2.70
2023-04-23T00:34:15.022Z,2.73
2023-04-23T00:36:42.167Z,2.53
2023-04-23T00:39:11.231Z,2.70
2023-04-23T00:41:38.382Z,2.30
2023-04-23T00:44:05.538Z,2.50
2023-04-23T00:46:32.708Z,2.80
2023-04-23T00:49:00.739Z,2.40
2023-04-23T00:51:29.071Z,3.00
2023-04-23T00:53:56.890Z,2.70
2023-04-23T00:56:25.500Z,2.70
2023-04-23T00:58:53.130Z,2.50
2023-04-23T01:01:21.671Z,2.83
2023-04-23T01:03:50.372Z,2.73
2023-04-23T01:06:17.713Z,2.70
2023-04-23T01:08:45.601Z,2.80
2023-04-23T01:11:14.483Z,2.80
2023-04-23T01:13:42.679Z,2.60
2023-04-23T01:16:10.756Z,2.80
2023-04-23T01:18:37.883Z,2.70
2023-04-23T01:21:05.632Z,2.77
2023-04-23T01:23:32.782Z,2.77
2023-04-23T01:26:00.562Z,2.80
2023-04-23T01:28:27.967Z,2.83
2023-04-23T01:30:55.276Z,2.63
2023-04-23T01:33:22.464Z,2.73
2023-04-23T01:35:49.828Z,2.70
2023-04-23T01:38:17.881Z,2.80
2023-04-23T01:40:45.058Z,2.70
2023-04-23T01:43:12.371Z,3.00
2023-04-23T01:45:39.898Z,3.00
2023-04-23T01:48:07.101Z,2.90
2023-04-23T01:50:34.515Z,2.70
2023-04-23T01:53:01.803Z,2.77
2023-04-23T01:55:28.962Z,2.70
2023-04-23T01:57:56.534Z,2.70
2023-04-23T02:00:23.780Z,2.70
2023-04-23T02:02:53.797Z,2.67
2023-04-23T02:05:21.845Z,2.47
2023-04-23T02:07:50.098Z,2.53
2023-04-23T02:10:17.598Z,2.90
2023-04-23T02:12:45.430Z,2.50
2023-04-23T02:15:12.813Z,2.70
2023-04-23T02:17:40.115Z,2.80
2023-04-23T02:20:10.940Z,2.50
2023-04-23T02:22:42.518Z,2.67
2023-04-23T02:25:10.516Z,2.67
2023-04-23T02:27:37.876Z,2.60
2023-04-23T02:30:05.419Z,2.60
2023-04-23T02:32:32.590Z,2.77
2023-04-23T02:35:01.850Z,2.73
2023-04-23T02:37:29.080Z,2.80
2023-04-23T02:39:56.246Z,2.60
2023-04-23T02:42:23.377Z,2.50
2023-04-23T02:44:50.506Z,2.90
2023-04-23T02:47:17.708Z,2.70
2023-04-23T02:49:44.854Z,2.70
2023-04-23T02:52:11.991Z,2.87
2023-04-23T02:54:39.501Z,2.60
2023-04-23T02:57:07.101Z,2.70
2023-04-23T02:59:34.260Z,2.80
2023-04-23T03:02:01.465Z,2.40
2023-04-23T03:04:28.813Z,2.57
2023-04-23T03:06:56.563Z,2.47
2023-04-23T03:09:23.769Z,2.50
2023-04-23T03:11:51.044Z,2.50
2023-04-23T03:14:18.214Z,2.50
2023-04-23T03:16:45.438Z,2.60
2023-04-23T03:19:12.624Z,2.63
2023-04-23T03:21:39.749Z,2.57
2023-04-23T03:24:07.048Z,2.70
2023-04-23T03:26:34.821Z,2.80
2023-04-23T03:29:02.007Z,2.57
2023-04-23T03:31:29.131Z,2.70
2023-04-23T03:33:56.278Z,2.37
2023-04-23T03:36:23.456Z,2.97
2023-04-23T03:38:50.579Z,2.70
2023-04-23T03:41:18.230Z,2.57
2023-04-23T03:43:45.432Z,2.50
2023-04-23T03:46:12.575Z,2.60
2023-04-23T03:48:39.787Z,2.60
2023-04-23T03:51:06.954Z,2.70
2023-04-23T03:53:34.085Z,2.67
2023-04-23T03:56:01.220Z,2.40
2023-04-23T03:58:28.349Z,2.77
2023-04-23T04:00:56.017Z,2.70
2023-04-23T04:03:23.343Z,3.50
2023-04-23T04:05:50.686Z,3.00
2023-04-23T04:08:17.862Z,2.73
2023-04-23T04:10:45.023Z,2.73
2023-04-23T04:13:12.170Z,3.07
2023-04-23T04:15:39.289Z,2.60
2023-04-23T04:18:06.920Z,2.57
2023-04-23T04:20:34.087Z,2.63
2023-04-23T04:23:01.210Z,2.57
2023-04-23T04:25:29.849Z,2.80
2023-04-23T04:27:57.547Z,2.83
2023-04-23T04:30:26.805Z,2.97
2023-04-23T04:32:54.662Z,2.97
2023-04-23T04:35:21.829Z,2.67
2023-04-23T04:37:49.728Z,2.90
2023-04-23T04:40:16.959Z,2.73
2023-04-23T04:42:46.451Z,2.73
2023-04-23T04:45:13.702Z,2.77
2023-04-23T04:47:41.337Z,2.73
2023-04-23T04:50:08.798Z,2.90
2023-04-23T04:52:36.963Z,3.10
2023-04-23T04:55:05.129Z,2.80
2023-04-23T04:57:32.264Z,2.80
2023-04-23T04:59:59.409Z,3.17
2023-04-23T05:02:26.895Z,3.10
2023-04-23T05:04:54.107Z,3.50
2023-04-23T05:07:21.249Z,3.10
2023-04-23T05:09:48.471Z,3.10
2023-04-23T05:12:15.624Z,3.00
2023-04-23T05:14:43.069Z,3.27
2023-04-23T05:17:11.746Z,3.37
2023-04-23T05:19:38.870Z,3.50
2023-04-23T05:22:06.183Z,3.20
2023-04-23T05:24:33.369Z,3.17
2023-04-23T05:27:01.399Z,3.13
2023-04-23T05:29:28.619Z,3.07
2023-04-23T05:31:55.834Z,3.43
2023-04-23T05:34:22.983Z,4.10
2023-04-23T05:36:50.098Z,4.03
2023-04-23T05:39:17.323Z,4.33
2023-04-23T05:41:44.482Z,4.47
2023-04-23T05:44:11.633Z,4.87
2023-04-23T05:46:38.833Z,5.03
2023-04-23T05:49:06.791Z,4.83
2023-04-23T05:51:34.023Z,5.43
2023-04-23T05:54:01.347Z,5.33
2023-04-23T05:56:28.466Z,5.80
2023-04-23T05:58:55.605Z,5.73
2023-04-23T06:01:23.604Z,5.57
2023-04-23T06:03:51.007Z,6.10
2023-04-23T06:06:18.295Z,6.00
2023-04-23T06:08:45.896Z,6.40
2023-04-23T06:11:13.181Z,6.57
2023-04-23T06:13:43.524Z,7.10
2023-04-23T06:16:11.192Z,6.10
2023-04-23T06:18:39.185Z,7.17
2023-04-23T06:21:06.700Z,6.50
2023-04-23T06:23:36.777Z,7.30
2023-04-23T06:26:04.622Z,6.80
2023-04-23T06:28:31.811Z,6.77
2023-04-23T06:30:59.402Z,6.80
2023-04-23T06:33:26.593Z,7.73
2023-04-23T06:35:53.710Z,7.80
2023-04-23T06:38:22.941Z,7.50
2023-04-23T06:40:50.095Z,7.93
2023-04-23T06:43:17.277Z,7.90
2023-04-23T06:45:44.470Z,7.80
2023-04-23T06:48:11.717Z,8.20
2023-04-23T06:50:39.555Z,8.27
2023-04-23T06:53:06.878Z,8.00
2023-04-23T06:55:34.062Z,8.23
2023-04-23T06:58:01.262Z,7.57
2023-04-23T07:00:28.502Z,8.40
2023-04-23T07:02:55.898Z,8.40
2023-04-23T07:05:23.174Z,7.87
2023-04-23T07:07:50.409Z,7.63
2023-04-23T07:10:18.099Z,8.20
2023-04-23T07:12:45.550Z,8.10
2023-04-23T07:15:12.753Z,7.93
2023-04-23T07:17:39.987Z,7.97
2023-04-23T07:20:08.759Z,8.60
2023-04-23T07:22:36.012Z,8.33
2023-04-23T07:25:04.435Z,8.40
2023-04-23T07:27:31.589Z,8.30
2023-04-23T07:29:58.974Z,8.47
2023-04-23T07:32:28.058Z,8.27
2023-04-23T07:34:58.858Z,8.43
2023-04-23T07:37:26.355Z,8.50
2023-04-23T07:39:54.054Z,9.40
2023-04-23T07:42:21.333Z,9.10
2023-04-23T07:44:48.499Z,9.70
2023-04-23T07:47:15.759Z,9.00
2023-04-23T07:49:43.717Z,9.47
2023-04-23T07:52:11.147Z,10.67
2023-04-23T07:54:38.322Z,11.67
2023-04-23T07:57:05.493Z,12.13
2023-04-23T07:59:32.631Z,11.90
2023-04-23T08:01:59.891Z,13.53
2023-04-23T08:04:27.344Z,14.30
2023-04-23T08:06:54.616Z,15.53
2023-04-23T08:09:21.768Z,15.17
2023-04-23T08:11:48.934Z,16.90
2023-04-23T08:14:16.224Z,18.30
2023-04-23T08:16:43.379Z,18.80
2023-04-23T08:19:10.737Z,19.97
2023-04-23T08:21:38.017Z,20.90
2023-04-23T08:24:09.466Z,21.27
2023-04-23T08:26:36.639Z,21.07
2023-04-23T08:29:05.210Z,20.60
2023-04-23T08:31:32.458Z,21.50
2023-04-23T08:33:59.949Z,20.77
2023-04-23T08:36:27.571Z,22.27
2023-04-23T08:38:54.788Z,22.07
2023-04-23T08:41:24.385Z,22.00
2023-04-23T08:43:53.057Z,23.20
2023-04-23T08:46:20.296Z,23.00
2023-04-23T08:48:48.926Z,22.43
2023-04-23T08:51:19.456Z,22.30
2023-04-23T08:53:50.467Z,18.97
2023-04-23T08:56:17.613Z,20.47
2023-04-23T08:58:46.031Z,19.73
2023-04-23T09:01:13.276Z,17.70
2023-04-23T09:03:41.394Z,17.40
2023-04-23T09:06:08.921Z,16.60
2023-04-23T09:08:36.103Z,16.77
2023-04-23T09:11:03.319Z,16.33
2023-04-23T09:13:32.008Z,16.00
2023-04-23T09:15:59.157Z,12.70
2023-04-23T09:18:26.466Z,11.40
2023-04-23T09:20:54.190Z,12.27
2023-04-23T09:23:22.916Z,12.37
2023-04-23T09:25:50.155Z,10.80
2023-04-23T09:28:17.307Z,11.43
2023-04-23T09:30:45.365Z,10.83
2023-04-23T09:33:13.384Z,11.30
2023-04-23T09:35:42.411Z,10.57
2023-04-23T09:38:10.638Z,9.73
2023-04-23T09:40:38.763Z,10.53
2023-04-23T09:43:07.529Z,11.23
2023-04-23T09:45:35.532Z,10.10
2023-04-23T09:48:02.839Z,10.73
2023-04-23T09:50:37.066Z,10.23
2023-04-23T09:53:04.633Z,8.40
2023-04-23T09:55:35.536Z,8.53
2023-04-23T09:58:04.138Z,8.30
2023-04-23T10:00:38.095Z,8.70
2023-04-23T10:03:07.328Z,8.03
2023-04-23T10:05:55.644Z,7.43
2023-04-23T10:08:26.110Z,6.70
2023-04-23T10:11:05.848Z,6.87
2023-04-23T10:13:37.217Z,7.20
2023-04-23T10:16:20.713Z,7.37
2023-04-23T10:18:51.573Z,7.07
2023-04-23T10:21:20.315Z,6.60
2023-04-23T10:23:48.517Z,7.50
2023-04-23T10:26:16.906Z,7.90
2023-04-23T10:28:48.070Z,7.43
2023-04-23T10:31:16.229Z,7.77
2023-04-23T10:33:55.932Z,7.97
2023-04-23T10:36:28.143Z,7.63
2023-04-23T10:39:00.311Z,7.57
2023-04-23T10:41:30.541Z,7.83
2023-04-23T10:43:58.425Z,8.50
2023-04-23T10:46:30.003Z,7.87
2023-04-23T10:49:06.998Z,8.77
2023-04-23T10:54:09.935Z,7.47
2023-04-23T10:56:38.764Z,7.60
2023-04-23T10:59:24.956Z,7.50
2023-04-23T11:01:52.603Z,8.87
2023-04-23T11:04:32.145Z,9.20
2023-04-23T11:07:05.530Z,7.70
2023-04-23T11:09:36.019Z,8.63
2023-04-23T11:12:03.779Z,7.80
2023-04-23T11:14:46.137Z,8.93
2023-04-23T11:17:13.875Z,8.33
2023-04-23T11:19:41.984Z,8.30
2023-04-23T11:22:12.404Z,7.20
2023-04-23T11:24:43.451Z,7.10
2023-04-23T11:27:10.866Z,6.43
2023-04-23T11:29:41.674Z,7.27
2023-04-23T11:32:15.538Z,6.93
2023-04-23T11:34:43.866Z,5.90
2023-04-23T11:37:14.794Z,5.87
2023-04-23T11:39:43.993Z,5.67
2023-04-23T11:42:14.914Z,6.90
2023-04-23T11:44:42.650Z,6.40
2023-04-23T11:47:11.229Z,6.67
2023-04-23T11:49:38.964Z,6.90
2023-04-23T11:52:06.623Z,6.90
2023-04-23T11:54:34.348Z,7.03
2023-04-23T11:57:01.880Z,7.60
2023-04-23T11:59:29.347Z,7.43
2023-04-23T12:01:57.765Z,7.20
2023-04-23T12:04:26.371Z,7.30
2023-04-23T12:06:54.657Z,7.20
2023-04-23T12:09:25.149Z,7.20
2023-04-23T12:11:52.594Z,7.00
2023-04-23T12:14:23.919Z,6.67
2023-04-23T12:16:54.205Z,6.50
2023-04-23T12:19:31.560Z,6.03
2023-04-23T12:22:00.033Z,5.80
2023-04-23T12:24:47.530Z,6.07
2023-04-23T12:27:15.994Z,6.40
2023-04-23T12:29:43.617Z,6.13
2023-04-23T12:32:11.848Z,6.20
2023-04-23T12:34:53.040Z,6.50
2023-04-23T12:37:24.507Z,6.53
2023-04-23T12:39:52.957Z,6.63
2023-04-23T12:42:20.093Z,6.90
2023-04-23T12:44:47.627Z,6.87
2023-04-23T12:47:19.725Z,7.10
2023-04-23T12:49:49.483Z,7.60
2023-04-23T12:52:17.062Z,7.50
2023-04-23T12:54:44.922Z,7.10
2023-04-23T12:57:12.955Z,6.80
2023-04-23T12:59:40.305Z,6.83
2023-04-23T13:02:07.725Z,7.07
2023-04-23T13:04:35.776Z,7.57
2023-04-23T13:07:02.961Z,7.60
2023-04-23T13:09:30.397Z,7.27
2023-04-23T13:11:57.661Z,8.10
2023-04-23T13:14:24.870Z,7.77
2023-04-23T13:16:52.737Z,8.03
2023-04-23T13:19:20.000Z,8.03
2023-04-23T13:21:47.329Z,8.60
2023-04-23T13:24:14.444Z,8.23
2023-04-23T13:26:41.633Z,8.47
2023-04-23T13:29:08.778Z,8.00
2023-04-23T13:31:36.017Z,7.67
2023-04-23T13:34:03.364Z,7.70
2023-04-23T13:36:30.649Z,7.83
2023-04-23T13:38:57.844Z,8.13
2023-04-23T13:41:25.018Z,8.17
2023-04-23T13:43:52.678Z,8.37
2023-04-23T13:46:20.110Z,8.13
2023-04-23T13:48:47.321Z,7.60
2023-04-23T13:51:33.290Z,8.50
2023-04-23T13:54:01.839Z,7.53
2023-04-23T13:56:30.110Z,7.83
2023-04-23T13:59:11.633Z,7.87
2023-04-23T14:01:47.247Z,8.27
2023-04-23T14:04:14.937Z,8.10
2023-04-23T14:06:42.401Z,8.50
2023-04-23T14:09:10.035Z,8.63
2023-04-23T14:11:39.420Z,8.83
2023-04-23T14:14:07.497Z,8.27
2023-04-23T14:16:35.404Z,8.20
2023-04-23T14:19:02.736Z,8.13
2023-04-23T14:21:30.504Z,8.20
2023-04-23T14:24:09.619Z,8.80
2023-04-23T14:29:18.356Z,8.93
2023-04-23T14:31:45.775Z,9.43
2023-04-23T14:34:13.036Z,9.57
2023-04-23T14:36:40.192Z,9.73
2023-04-23T14:39:07.370Z,9.80
2023-04-23T14:41:34.701Z,9.53
2023-04-23T14:44:02.190Z,10.33
2023-04-23T14:46:29.611Z,10.40
2023-04-23T14:48:56.795Z,10.63
2023-04-23T14:51:24.035Z,11.13
2023-04-23T14:53:52.890Z,10.60
2023-04-23T14:56:21.177Z,10.47
2023-04-23T14:58:48.399Z,11.17
2023-04-23T15:01:15.705Z,11.03
2023-04-23T15:03:45.021Z,11.50
2023-04-23T15:06:12.479Z,11.60
2023-04-23T15:08:39.698Z,11.20
2023-04-23T15:11:13.121Z,10.93
2023-04-23T15:13:55.876Z,11.23
2023-04-23T15:16:51.825Z,11.33
2023-04-23T15:19:19.366Z,11.27
2023-04-23T15:21:47.117Z,11.80
2023-04-23T15:24:14.615Z,12.00
2023-04-23T15:26:42.095Z,11.40
2023-04-23T15:29:09.989Z,11.13
2023-04-23T15:31:37.931Z,11.07
2023-04-23T15:34:07.271Z,12.23
2023-04-23T15:36:35.839Z,11.93
2023-04-23T15:39:03.062Z,12.30
2023-04-23T15:41:30.486Z,12.30
2023-04-23T15:43:57.795Z,12.40
2023-04-23T15:46:24.979Z,11.97
2023-04-23T15:48:52.170Z,11.87
2023-04-23T15:51:19.384Z,11.63
2023-04-23T15:53:46.582Z,11.93
2023-04-23T15:56:13.760Z,14.13
2023-04-23T15:58:40.898Z,12.77
2023-04-23T16:01:09.734Z,13.57
2023-04-23T16:03:37.289Z,13.07
2023-04-23T16:06:05.129Z,13.17
2023-04-23T16:08:32.682Z,12.97
2023-04-23T16:10:59.948Z,12.95
2023-04-23T16:13:28.921Z,13.18
2023-04-23T16:15:56.210Z,13.55
2023-04-23T16:18:23.485Z,12.68
2023-04-23T16:20:50.894Z,13.10
2023-04-23T16:23:18.170Z,13.25
2023-04-23T16:25:45.403Z,12.73
2023-04-23T16:28:13.781Z,12.55
2023-04-23T16:30:41.092Z,12.02
2023-04-23T16:33:09.528Z,11.80
2023-04-23T16:35:36.872Z,11.45
2023-04-23T16:38:04.021Z,11.48
2023-04-23T16:40:31.157Z,11.07
2023-04-23T16:42:58.388Z,10.57
2023-04-23T16:45:25.542Z,10.65
2023-04-23T16:47:52.740Z,9.15
2023-04-23T16:50:19.990Z,9.20
2023-04-23T16:52:47.261Z,9.77
2023-04-23T16:55:14.677Z,10.10
2023-04-23T16:57:41.895Z,9.38
2023-04-23T17:00:09.818Z,10.65
2023-04-23T17:02:37.975Z,9.52
2023-04-23T17:05:06.298Z,10.90
2023-04-23T17:07:33.464Z,10.38
2023-04-23T17:10:00.642Z,10.75
2023-04-23T17:12:27.938Z,10.48
2023-04-23T17:14:55.215Z,12.07
2023-04-23T17:17:23.062Z,12.48
2023-04-23T17:19:51.063Z,11.50
2023-04-23T17:22:18.280Z,11.70
2023-04-23T17:24:46.091Z,11.73
2023-04-23T17:27:13.204Z,10.53
2023-04-23T17:29:40.373Z,10.53
2023-04-23T17:32:07.691Z,10.50
2023-04-23T17:34:35.167Z,10.33
2023-04-23T17:37:02.381Z,9.97
2023-04-23T17:39:29.580Z,10.07
2023-04-23T17:41:57.567Z,11.73
2023-04-23T17:44:24.739Z,11.40
2023-04-23T17:46:55.172Z,11.70
2023-04-23T17:49:22.941Z,11.80
2023-04-23T17:51:50.318Z,12.57
2023-04-23T17:54:18.048Z,13.13
2023-04-23T17:56:45.238Z,12.70
2023-04-23T17:59:12.515Z,13.20
2023-04-23T18:01:39.758Z,12.83
2023-04-23T18:04:07.153Z,13.53
2023-04-23T18:06:35.980Z,12.93
2023-04-23T18:09:03.362Z,12.73
2023-04-23T18:11:30.574Z,13.13
2023-04-23T18:13:57.928Z,13.17
2023-04-23T18:16:25.196Z,14.50
2023-04-23T18:18:52.451Z,12.47
2023-04-23T18:21:19.658Z,13.77
2023-04-23T18:23:47.397Z,13.83
2023-04-23T18:26:14.641Z,13.20
2023-04-23T18:28:41.767Z,14.20
2023-04-23T18:31:09.284Z,12.67
2023-04-23T18:33:43.901Z,13.40
2023-04-23T18:36:29.974Z,13.50
2023-04-23T18:38:58.814Z,13.17
2023-04-23T18:41:28.884Z,13.80
2023-04-23T18:43:56.311Z,13.90
2023-04-23T18:46:23.604Z,13.60
2023-04-23T18:49:09.888Z,13.90
2023-04-23T18:51:50.702Z,13.57
2023-04-23T18:54:17.964Z,13.30
2023-04-23T18:56:45.544Z,14.17
2023-04-23T18:59:12.735Z,14.67
2023-04-23T19:01:40.298Z,13.63
2023-04-23T19:04:07.582Z,14.30
2023-04-23T19:06:34.946Z,16.58
2023-04-23T19:09:02.085Z,14.67
2023-04-23T19:11:34.212Z,14.77
2023-04-23T19:14:04.756Z,14.00
2023-04-23T19:16:31.909Z,14.40
2023-04-23T19:18:59.124Z,13.53
2023-04-23T19:21:26.419Z,14.90
2023-04-23T19:23:54.155Z,14.97
2023-04-23T19:26:21.336Z,14.10
2023-04-23T19:28:48.543Z,13.73
2023-04-23T19:31:15.905Z,13.90
2023-04-23T19:33:46.251Z,14.73
2023-04-23T19:36:13.420Z,15.37
2023-04-23T19:38:40.982Z,14.57
2023-04-23T19:41:08.211Z,14.30
2023-04-23T19:43:35.534Z,15.20
2023-04-23T19:46:02.897Z,15.13
2023-04-23T19:48:30.367Z,16.13
2023-04-23T19:50:59.353Z,14.83
2023-04-23T19:53:27.439Z,14.80
2023-04-23T19:55:54.617Z,14.97
2023-04-23T19:58:21.865Z,14.87
2023-04-23T20:00:49.102Z,16.00
2023-04-23T20:03:16.531Z,15.50
2023-04-23T20:05:45.926Z,15.40
2023-04-23T20:08:25.384Z,14.90
2023-04-23T20:10:53.361Z,15.63
2023-04-23T20:13:20.751Z,14.87
2023-04-23T20:15:49.867Z,15.80
2023-04-23T20:18:17.448Z,15.73
2023-04-23T20:20:44.637Z,15.17
2023-04-23T20:23:11.761Z,15.53
2023-04-23T20:25:39.773Z,15.13
2023-04-23T20:28:07.294Z,14.93
2023-04-23T20:30:34.820Z,15.83
2023-04-23T20:33:02.405Z,15.80
2023-04-23T20:35:31.480Z,15.63
2023-04-23T20:37:58.645Z,15.50
2023-04-23T20:40:26.206Z,16.07
2023-04-23T20:42:54.477Z,15.07
2023-04-23T20:45:22.368Z,15.20
2023-04-23T20:47:50.130Z,16.27
2023-04-23T20:50:17.421Z,15.60
2023-04-23T20:52:44.567Z,17.70
2023-04-23T20:55:11.696Z,16.17
2023-04-23T20:57:38.904Z,16.40
2023-04-23T21:00:11.960Z,16.17
2023-04-23T21:02:39.807Z,15.97
2023-04-23T21:05:07.838Z,15.73
2023-04-23T21:07:36.649Z,15.63
2023-04-23T21:10:07.192Z,16.03
2023-04-23T21:12:34.407Z,16.17
2023-04-23T21:15:01.892Z,15.77
2023-04-23T21:17:29.108Z,16.07
2023-04-23T21:19:56.283Z,16.90
2023-04-23T21:22:23.743Z,15.53
2023-04-23T21:24:50.886Z,15.50
2023-04-23T21:27:21.682Z,15.67
2023-04-23T21:29:49.118Z,16.00
2023-04-23T21:32:16.436Z,16.17
2023-04-23T21:34:43.570Z,15.97
2023-04-23T21:37:10.821Z,16.57
2023-04-23T21:39:38.030Z,16.00
2023-04-23T21:42:05.333Z,16.57
2023-04-23T21:44:32.806Z,16.80
2023-04-23T21:47:00.055Z,16.57
2023-04-23T21:49:27.786Z,16.47
2023-04-23T21:51:55.956Z,16.17
2023-04-23T21:54:23.087Z,16.93
2023-04-23T21:56:50.203Z,17.57
2023-04-23T21:59:18.984Z,17.07
2023-04-23T22:01:46.152Z,17.50
2023-04-23T22:04:14.070Z,16.93
2023-04-23T22:06:41.379Z,17.27
2023-04-23T22:09:08.577Z,18.33
2023-04-23T22:11:35.796Z,18.00
2023-04-23T22:14:02.985Z,18.53
2023-04-23T22:16:30.223Z,18.63
2023-04-23T22:18:57.978Z,18.07
2023-04-23T22:21:25.288Z,18.47
2023-04-23T22:23:52.759Z,19.00
2023-04-23T22:26:19.890Z,19.33
2023-04-23T22:28:47.030Z,18.90
2023-04-23T22:31:14.201Z,18.67
2023-04-23T22:33:41.328Z,20.03
2023-04-23T22:36:08.651Z,18.80
2023-04-23T22:38:36.242Z,19.30
2023-04-23T22:41:03.576Z,18.40
2023-04-23T22:43:30.977Z,18.90
2023-04-23T22:45:58.212Z,18.80
2023-04-23T22:48:25.416Z,18.97
2023-04-23T22:50:52.614Z,19.17
2023-04-23T22:53:20.210Z,19.10
2023-04-23T22:55:48.406Z,19.00
2023-04-23T22:58:15.894Z,18.93
2023-04-23T23:00:43.089Z,19.77
2023-04-23T23:03:10.328Z,19.17
2023-04-23T23:05:37.454Z,19.23
2023-04-23T23:08:04.607Z,19.33
2023-04-23T23:10:31.828Z,19.07
2023-04-23T23:12:59.029Z,19.00
2023-04-23T23:15:26.192Z,19.73
2023-04-23T23:17:53.892Z,20.17
2023-04-23T23:20:21.350Z,19.43
2023-04-23T23:22:48.499Z,20.10
2023-04-23T23:25:16.219Z,19.53
2023-04-23T23:27:43.395Z,20.13
2023-04-23T23:30:10.778Z,19.67
2023-04-23T23:32:38.016Z,18.50
2023-04-23T23:35:06.425Z,20.03
2023-04-23T23:37:33.643Z,18.97
2023-04-23T23:40:00.793Z,19.80
2023-04-23T23:42:27.944Z,18.40
2023-04-23T23:44:55.058Z,19.60
2023-04-23T23:47:22.319Z,19.23
2023-04-23T23:49:49.606Z,20.30
2023-04-23T23:52:16.750Z,18.83
2023-04-23T23:54:43.912Z,17.87
2023-04-23T23:57:11.182Z,19.20
2023-04-23T23:59:38.368Z,19.07
